Ottawa Gatineau Airport
CYND : rendu visible

Aérodrome :











RETROUVEZ-NOUS SUR...

 
LOGIN :

S'inscrire | Disclaimer

   EN    FR    IT 

 









Légende :    VFR   VFR Marginal   IFR   IFR Intensif   IFR Très Intensif
Visi : 
Plafond : 
>= 8 km
>= 3000ft
5 à 8 km
1000 à 3000 ft
1500m à 5 km
500 à 1000 ft
800 à 1500m
200 à 500 ft
< 800m
< 200 ft
Symboles :   Orages  Brouillard  Fortes neiges  Fortes précipitations  Vent > 20 kt






- Altitude de l'aérodrome : 211 ft
- Code IATA : YND


CYND - Ottawa Gatineau

DERNIER METAR :
  • 151700Z 10008KT 070V150 15SM FEW040 FEW150 FEW180 BKN260 25/14 A3019 RMK CU1AC1AC1CI4 CU TR SLP225 DENSITY ALT 1100FT

METARs EXPIRÉS :
  • 151600Z 10007KT 090V180 15SM FEW040 FEW180 FEW260 23/14 A3022 RMK CU1AC1CI1 CU TR CI TR SLP233 DENSITY ALT 900FT
  • 151500Z 10008KT 050V120 15SM FEW180 FEW260 23/14 A3021 RMK AC1CI1 CI TR SLP231 DENSITY ALT 900FT

TAF TAF CYND
Valide du 15 à 18h jusqu'au 16 à 01h UTC


151738Z 1518/1601 10008KT P6SM FEW040 SCT150 BKN250 RMK NXT FCST WILL BE ISSUED AT 161245Z
FIR CZUL / Amérique du Nord



MET'MAP, la Météo Aéronautique d'un coup d'oeil ! - Copyright ORBIFLY Décembre 2007 - Disclaimer

ORBIFLY MET'MAP TEAM :

Programmation & Développement : Alexandra Zaïnal
Sur une idée originale de : Baudouin d'Aumeries
Assistance à la programmation : Marc-Olivier Méhu
Soutien technique & logistique : Manuel Goepfert

Contact : metmap@orbifly.com




SOURCES & CREDITS :

   NOAA       Earth
Advisory